sensor_id;sensor_type;location;lat;lon;timestamp;temperature;humidity
4635;DHT22;2330;48.158;11.816;2023-02-28T00:00:25;-3.00;98.50
4635;DHT22;2330;48.158;11.816;2023-02-28T00:02:51;-3.00;98.50
4635;DHT22;2330;48.158;11.816;2023-02-28T00:05:23;-3.10;98.50
4635;DHT22;2330;48.158;11.816;2023-02-28T00:07:50;-3.10;98.50
4635;DHT22;2330;48.158;11.816;2023-02-28T00:10:22;-3.10;98.50
4635;DHT22;2330;48.158;11.816;2023-02-28T00:12:51;-3.10;98.50
4635;DHT22;2330;48.158;11.816;2023-02-28T00:15:19;-3.10;98.50
4635;DHT22;2330;48.158;11.816;2023-02-28T00:17:46;-3.10;98.50
4635;DHT22;2330;48.158;11.816;2023-02-28T00:20:13;-3.10;98.50
4635;DHT22;2330;48.158;11.816;2023-02-28T00:22:46;-3.10;98.50
4635;DHT22;2330;48.158;11.816;2023-02-28T00:25:16;-3.10;98.50
4635;DHT22;2330;48.158;11.816;2023-02-28T00:27:43;-3.20;98.50
4635;DHT22;2330;48.158;11.816;2023-02-28T00:30:13;-3.10;98.50
4635;DHT22;2330;48.158;11.816;2023-02-28T00:32:41;-3.20;98.50
4635;DHT22;2330;48.158;11.816;2023-02-28T00:35:08;-3.20;98.50
4635;DHT22;2330;48.158;11.816;2023-02-28T00:37:35;-3.20;98.50
4635;DHT22;2330;48.158;11.816;2023-02-28T00:40:02;-3.20;98.50
4635;DHT22;2330;48.158;11.816;2023-02-28T00:42:31;-3.20;98.50
4635;DHT22;2330;48.158;11.816;2023-02-28T00:44:58;-3.20;98.50
4635;DHT22;2330;48.158;11.816;2023-02-28T00:47:24;-3.30;98.50
4635;DHT22;2330;48.158;11.816;2023-02-28T00:49:51;-3.30;98.50
4635;DHT22;2330;48.158;11.816;2023-02-28T00:52:18;-3.30;98.50
4635;DHT22;2330;48.158;11.816;2023-02-28T00:54:45;-3.30;98.50
4635;DHT22;2330;48.158;11.816;2023-02-28T00:57:11;-3.30;98.50
4635;DHT22;2330;48.158;11.816;2023-02-28T00:59:38;-3.30;98.50
4635;DHT22;2330;48.158;11.816;2023-02-28T01:02:05;-3.30;98.50
4635;DHT22;2330;48.158;11.816;2023-02-28T01:04:31;-3.30;98.50
4635;DHT22;2330;48.158;11.816;2023-02-28T01:06:58;-3.30;98.50
4635;DHT22;2330;48.158;11.816;2023-02-28T01:09:25;-3.30;98.50
4635;DHT22;2330;48.158;11.816;2023-02-28T01:11:52;-3.40;98.50
4635;DHT22;2330;48.158;11.816;2023-02-28T01:14:18;-3.40;98.50
4635;DHT22;2330;48.158;11.816;2023-02-28T01:16:46;-3.40;98.50
4635;DHT22;2330;48.158;11.816;2023-02-28T01:19:13;-3.40;98.50
4635;DHT22;2330;48.158;11.816;2023-02-28T01:21:40;-3.40;98.50
4635;DHT22;2330;48.158;11.816;2023-02-28T01:24:06;-3.40;98.50
4635;DHT22;2330;48.158;11.816;2023-02-28T01:26:34;-3.40;98.50
4635;DHT22;2330;48.158;11.816;2023-02-28T01:29:00;-3.50;98.50
4635;DHT22;2330;48.158;11.816;2023-02-28T01:31:27;-3.50;98.50
4635;DHT22;2330;48.158;11.816;2023-02-28T01:33:54;-3.50;98.50
4635;DHT22;2330;48.158;11.816;2023-02-28T01:36:23;-3.50;98.50
4635;DHT22;2330;48.158;11.816;2023-02-28T01:38:50;-3.50;98.50
4635;DHT22;2330;48.158;11.816;2023-02-28T01:41:20;-3.50;98.50
4635;DHT22;2330;48.158;11.816;2023-02-28T01:46:14;-3.60;98.50
4635;DHT22;2330;48.158;11.816;2023-02-28T01:48:51;-3.60;98.50
4635;DHT22;2330;48.158;11.816;2023-02-28T01:51:29;-3.60;98.50
4635;DHT22;2330;48.158;11.816;2023-02-28T01:54:05;-3.60;98.50
4635;DHT22;2330;48.158;11.816;2023-02-28T01:56:34;-3.60;98.50
4635;DHT22;2330;48.158;11.816;2023-02-28T01:59:03;-3.60;98.50
4635;DHT22;2330;48.158;11.816;2023-02-28T02:01:30;-3.60;98.50
4635;DHT22;2330;48.158;11.816;2023-02-28T02:04:01;-3.60;98.50
4635;DHT22;2330;48.158;11.816;2023-02-28T02:06:34;-3.60;98.50
4635;DHT22;2330;48.158;11.816;2023-02-28T02:09:02;-3.60;98.50
4635;DHT22;2330;48.158;11.816;2023-02-28T02:11:29;-3.70;98.50
4635;DHT22;2330;48.158;11.816;2023-02-28T02:14:22;-3.70;98.50
4635;DHT22;2330;48.158;11.816;2023-02-28T02:17:25;-3.70;98.50
4635;DHT22;2330;48.158;11.816;2023-02-28T02:20:11;-3.70;98.50
4635;DHT22;2330;48.158;11.816;2023-02-28T02:23:07;-3.70;98.50
4635;DHT22;2330;48.158;11.816;2023-02-28T02:26:04;-3.70;98.50
4635;DHT22;2330;48.158;11.816;2023-02-28T02:31:56;-3.70;98.50
4635;DHT22;2330;48.158;11.816;2023-02-28T02:37:27;-3.70;98.50
4635;DHT22;2330;48.158;11.816;2023-02-28T02:40:08;-3.80;98.50
4635;DHT22;2330;48.158;11.816;2023-02-28T02:43:01;-3.80;98.50
4635;DHT22;2330;48.158;11.816;2023-02-28T02:45:55;-3.80;98.50
4635;DHT22;2330;48.158;11.816;2023-02-28T02:48:30;-3.80;98.50
4635;DHT22;2330;48.158;11.816;2023-02-28T02:51:00;-3.80;98.50
4635;DHT22;2330;48.158;11.816;2023-02-28T02:53:36;-3.80;98.50
4635;DHT22;2330;48.158;11.816;2023-02-28T02:56:05;-3.80;98.50
4635;DHT22;2330;48.158;11.816;2023-02-28T02:58:37;-3.80;98.50
4635;DHT22;2330;48.158;11.816;2023-02-28T03:01:12;-3.80;98.50
4635;DHT22;2330;48.158;11.816;2023-02-28T03:03:41;-3.80;98.50
4635;DHT22;2330;48.158;11.816;2023-02-28T03:06:08;-3.80;98.50
4635;DHT22;2330;48.158;11.816;2023-02-28T03:08:37;-3.90;98.50
4635;DHT22;2330;48.158;11.816;2023-02-28T03:11:07;-3.80;98.50
4635;DHT22;2330;48.158;11.816;2023-02-28T03:20:03;-3.90;98.50
4635;DHT22;2330;48.158;11.816;2023-02-28T03:22:40;-3.80;98.50
4635;DHT22;2330;48.158;11.816;2023-02-28T03:28:37;-3.80;98.50
4635;DHT22;2330;48.158;11.816;2023-02-28T03:37:13;-3.80;98.50
4635;DHT22;2330;48.158;11.816;2023-02-28T03:39:45;-3.80;98.50
4635;DHT22;2330;48.158;11.816;2023-02-28T03:42:16;-3.80;98.50
4635;DHT22;2330;48.158;11.816;2023-02-28T03:44:51;-3.80;98.50
4635;DHT22;2330;48.158;11.816;2023-02-28T03:47:39;-3.80;98.50
4635;DHT22;2330;48.158;11.816;2023-02-28T03:52:59;-3.90;98.50
4635;DHT22;2330;48.158;11.816;2023-02-28T03:55:34;-3.80;98.50
4635;DHT22;2330;48.158;11.816;2023-02-28T03:58:11;-3.80;98.50
4635;DHT22;2330;48.158;11.816;2023-02-28T04:00:45;-3.80;98.50
4635;DHT22;2330;48.158;11.816;2023-02-28T04:03:13;-3.90;98.50
4635;DHT22;2330;48.158;11.816;2023-02-28T04:05:49;-3.90;98.50
4635;DHT22;2330;48.158;11.816;2023-02-28T04:08:17;-3.80;98.50
4635;DHT22;2330;48.158;11.816;2023-02-28T04:10:47;-3.90;98.50
4635;DHT22;2330;48.158;11.816;2023-02-28T04:13:15;-3.90;98.50
4635;DHT22;2330;48.158;11.816;2023-02-28T04:15:42;-3.80;98.50
4635;DHT22;2330;48.158;11.816;2023-02-28T04:18:09;-3.80;98.50
4635;DHT22;2330;48.158;11.816;2023-02-28T04:20:35;-3.90;98.50
4635;DHT22;2330;48.158;11.816;2023-02-28T04:23:02;-3.90;98.50
4635;DHT22;2330;48.158;11.816;2023-02-28T04:25:29;-3.80;98.50
4635;DHT22;2330;48.158;11.816;2023-02-28T04:27:56;-3.80;98.50
4635;DHT22;2330;48.158;11.816;2023-02-28T04:30:22;-3.90;98.50
4635;DHT22;2330;48.158;11.816;2023-02-28T04:32:49;-3.80;98.50
4635;DHT22;2330;48.158;11.816;2023-02-28T04:35:16;-3.80;98.50
4635;DHT22;2330;48.158;11.816;2023-02-28T04:37:42;-3.80;98.50
4635;DHT22;2330;48.158;11.816;2023-02-28T04:40:10;-3.80;98.50
4635;DHT22;2330;48.158;11.816;2023-02-28T04:42:36;-3.80;98.50
4635;DHT22;2330;48.158;11.816;2023-02-28T04:45:03;-3.70;98.50
4635;DHT22;2330;48.158;11.816;2023-02-28T04:47:30;-3.70;98.50
4635;DHT22;2330;48.158;11.816;2023-02-28T04:49:58;-3.70;98.50
4635;DHT22;2330;48.158;11.816;2023-02-28T04:52:27;-3.60;98.50
4635;DHT22;2330;48.158;11.816;2023-02-28T04:54:53;-3.60;98.50
4635;DHT22;2330;48.158;11.816;2023-02-28T04:57:20;-3.60;98.50
4635;DHT22;2330;48.158;11.816;2023-02-28T04:59:47;-3.60;98.50
4635;DHT22;2330;48.158;11.816;2023-02-28T05:02:13;-3.50;98.50
4635;DHT22;2330;48.158;11.816;2023-02-28T05:04:40;-3.50;98.50
4635;DHT22;2330;48.158;11.816;2023-02-28T05:07:07;-3.50;98.50
4635;DHT22;2330;48.158;11.816;2023-02-28T05:09:34;-3.50;98.50
4635;DHT22;2330;48.158;11.816;2023-02-28T05:12:01;-3.40;98.50
4635;DHT22;2330;48.158;11.816;2023-02-28T05:14:27;-3.40;98.50
4635;DHT22;2330;48.158;11.816;2023-02-28T05:16:54;-3.40;98.50
4635;DHT22;2330;48.158;11.816;2023-02-28T05:19:21;-3.40;98.50
4635;DHT22;2330;48.158;11.816;2023-02-28T05:21:50;-3.30;98.50
4635;DHT22;2330;48.158;11.816;2023-02-28T05:24:18;-3.30;98.50
4635;DHT22;2330;48.158;11.816;2023-02-28T05:26:50;-3.20;98.50
4635;DHT22;2330;48.158;11.816;2023-02-28T05:29:18;-3.20;98.50
4635;DHT22;2330;48.158;11.816;2023-02-28T05:31:46;-3.20;98.50
4635;DHT22;2330;48.158;11.816;2023-02-28T05:34:13;-3.10;98.50
4635;DHT22;2330;48.158;11.816;2023-02-28T05:36:42;-3.10;98.50
4635;DHT22;2330;48.158;11.816;2023-02-28T05:39:09;-3.00;98.50
4635;DHT22;2330;48.158;11.816;2023-02-28T05:41:42;-3.00;98.50
4635;DHT22;2330;48.158;11.816;2023-02-28T05:44:09;-2.90;98.50
4635;DHT22;2330;48.158;11.816;2023-02-28T05:46:36;-2.80;98.50
4635;DHT22;2330;48.158;11.816;2023-02-28T05:49:03;-2.80;98.50
4635;DHT22;2330;48.158;11.816;2023-02-28T05:51:30;-2.80;98.50
4635;DHT22;2330;48.158;11.816;2023-02-28T05:54:01;-2.80;98.50
4635;DHT22;2330;48.158;11.816;2023-02-28T05:56:28;-2.80;98.50
4635;DHT22;2330;48.158;11.816;2023-02-28T05:58:55;-2.80;98.50
4635;DHT22;2330;48.158;11.816;2023-02-28T06:01:32;-2.80;98.50
4635;DHT22;2330;48.158;11.816;2023-02-28T06:04:00;-2.80;98.50
4635;DHT22;2330;48.158;11.816;2023-02-28T06:06:28;-2.80;98.50
4635;DHT22;2330;48.158;11.816;2023-02-28T06:08:56;-2.80;98.50
4635;DHT22;2330;48.158;11.816;2023-02-28T06:11:23;-2.80;98.50
4635;DHT22;2330;48.158;11.816;2023-02-28T06:13:58;-2.80;98.50
4635;DHT22;2330;48.158;11.816;2023-02-28T06:16:31;-2.80;98.50
4635;DHT22;2330;48.158;11.816;2023-02-28T06:19:00;-2.80;98.50
4635;DHT22;2330;48.158;11.816;2023-02-28T06:21:27;-2.80;98.50
4635;DHT22;2330;48.158;11.816;2023-02-28T06:23:55;-2.80;98.50
4635;DHT22;2330;48.158;11.816;2023-02-28T06:26:22;-2.80;98.50
4635;DHT22;2330;48.158;11.816;2023-02-28T06:28:49;-2.70;98.50
4635;DHT22;2330;48.158;11.816;2023-02-28T06:31:17;-2.70;98.50
4635;DHT22;2330;48.158;11.816;2023-02-28T06:33:45;-2.70;98.50
4635;DHT22;2330;48.158;11.816;2023-02-28T06:36:14;-2.70;98.50
4635;DHT22;2330;48.158;11.816;2023-02-28T06:38:42;-2.70;98.50
4635;DHT22;2330;48.158;11.816;2023-02-28T06:41:09;-2.70;98.50
4635;DHT22;2330;48.158;11.816;2023-02-28T06:43:39;-2.70;98.50
4635;DHT22;2330;48.158;11.816;2023-02-28T06:46:08;-2.70;98.50
4635;DHT22;2330;48.158;11.816;2023-02-28T06:48:35;-2.70;98.50
4635;DHT22;2330;48.158;11.816;2023-02-28T06:51:11;-2.70;98.50
4635;DHT22;2330;48.158;11.816;2023-02-28T06:53:40;-2.60;98.50
4635;DHT22;2330;48.158;11.816;2023-02-28T06:56:09;-2.70;98.50
4635;DHT22;2330;48.158;11.816;2023-02-28T06:58:37;-2.70;98.50
4635;DHT22;2330;48.158;11.816;2023-02-28T07:01:07;-2.60;98.50
4635;DHT22;2330;48.158;11.816;2023-02-28T07:03:35;-2.60;98.50
4635;DHT22;2330;48.158;11.816;2023-02-28T07:06:02;-2.60;98.50
4635;DHT22;2330;48.158;11.816;2023-02-28T07:08:30;-2.60;98.50
4635;DHT22;2330;48.158;11.816;2023-02-28T07:10:58;-2.60;98.50
4635;DHT22;2330;48.158;11.816;2023-02-28T07:13:25;-2.60;98.50
4635;DHT22;2330;48.158;11.816;2023-02-28T07:15:56;-2.60;98.50
4635;DHT22;2330;48.158;11.816;2023-02-28T07:18:24;-2.60;98.50
4635;DHT22;2330;48.158;11.816;2023-02-28T07:20:51;-2.50;98.50
4635;DHT22;2330;48.158;11.816;2023-02-28T07:23:18;-2.50;98.50
4635;DHT22;2330;48.158;11.816;2023-02-28T07:25:45;-2.70;98.50
4635;DHT22;2330;48.158;11.816;2023-02-28T07:28:13;-2.70;98.50
4635;DHT22;2330;48.158;11.816;2023-02-28T07:30:40;-2.60;98.50
4635;DHT22;2330;48.158;11.816;2023-02-28T07:33:08;-2.60;98.50
4635;DHT22;2330;48.158;11.816;2023-02-28T07:35:35;-2.50;98.50
4635;DHT22;2330;48.158;11.816;2023-02-28T07:38:02;-2.50;98.50
4635;DHT22;2330;48.158;11.816;2023-02-28T07:40:29;-2.50;98.50
4635;DHT22;2330;48.158;11.816;2023-02-28T07:42:56;-2.50;98.50
4635;DHT22;2330;48.158;11.816;2023-02-28T07:45:23;-2.50;98.50
4635;DHT22;2330;48.158;11.816;2023-02-28T07:47:49;-2.40;98.50
4635;DHT22;2330;48.158;11.816;2023-02-28T07:50:16;-2.30;98.50
4635;DHT22;2330;48.158;11.816;2023-02-28T07:52:43;-2.30;98.50
4635;DHT22;2330;48.158;11.816;2023-02-28T07:55:10;-2.30;98.50
4635;DHT22;2330;48.158;11.816;2023-02-28T07:57:37;-2.30;98.50
4635;DHT22;2330;48.158;11.816;2023-02-28T08:00:06;-2.20;98.50
4635;DHT22;2330;48.158;11.816;2023-02-28T08:02:33;-2.20;98.50
4635;DHT22;2330;48.158;11.816;2023-02-28T08:05:00;-2.10;98.50
4635;DHT22;2330;48.158;11.816;2023-02-28T08:07:27;-2.10;98.50
4635;DHT22;2330;48.158;11.816;2023-02-28T08:09:54;-2.20;98.50
4635;DHT22;2330;48.158;11.816;2023-02-28T08:12:21;-2.20;98.50
4635;DHT22;2330;48.158;11.816;2023-02-28T08:14:48;-2.20;98.50
4635;DHT22;2330;48.158;11.816;2023-02-28T08:17:14;-2.10;98.50
4635;DHT22;2330;48.158;11.816;2023-02-28T08:19:41;-2.10;98.50
4635;DHT22;2330;48.158;11.816;2023-02-28T08:22:08;-2.20;98.50
4635;DHT22;2330;48.158;11.816;2023-02-28T08:24:34;-2.10;98.50
4635;DHT22;2330;48.158;11.816;2023-02-28T08:27:01;-2.00;98.50
4635;DHT22;2330;48.158;11.816;2023-02-28T08:29:28;-1.90;98.50
4635;DHT22;2330;48.158;11.816;2023-02-28T08:31:56;-1.80;98.50
4635;DHT22;2330;48.158;11.816;2023-02-28T08:34:23;-1.80;98.50
4635;DHT22;2330;48.158;11.816;2023-02-28T08:36:50;-1.90;98.50
4635;DHT22;2330;48.158;11.816;2023-02-28T08:39:17;-1.90;98.50
4635;DHT22;2330;48.158;11.816;2023-02-28T08:41:44;-1.90;98.50
4635;DHT22;2330;48.158;11.816;2023-02-28T08:44:13;-1.80;98.50
4635;DHT22;2330;48.158;11.816;2023-02-28T08:46:40;-1.80;98.50
4635;DHT22;2330;48.158;11.816;2023-02-28T08:49:06;-1.80;98.50
4635;DHT22;2330;48.158;11.816;2023-02-28T08:51:33;-1.70;98.50
4635;DHT22;2330;48.158;11.816;2023-02-28T08:54:01;-1.70;98.50
4635;DHT22;2330;48.158;11.816;2023-02-28T08:56:28;-1.70;98.50
4635;DHT22;2330;48.158;11.816;2023-02-28T08:58:56;-1.70;98.50
4635;DHT22;2330;48.158;11.816;2023-02-28T09:01:27;-1.80;98.50
4635;DHT22;2330;48.158;11.816;2023-02-28T09:03:56;-2.00;98.50
4635;DHT22;2330;48.158;11.816;2023-02-28T09:06:25;-1.90;98.50
4635;DHT22;2330;48.158;11.816;2023-02-28T09:08:55;-1.80;98.50
4635;DHT22;2330;48.158;11.816;2023-02-28T09:11:25;-1.90;98.50
4635;DHT22;2330;48.158;11.816;2023-02-28T09:13:51;-1.90;98.50
4635;DHT22;2330;48.158;11.816;2023-02-28T09:16:18;-1.70;98.50
4635;DHT22;2330;48.158;11.816;2023-02-28T09:18:45;-1.60;98.50
4635;DHT22;2330;48.158;11.816;2023-02-28T09:21:14;-1.60;98.50
4635;DHT22;2330;48.158;11.816;2023-02-28T09:23:42;-1.70;98.50
4635;DHT22;2330;48.158;11.816;2023-02-28T09:26:17;-1.50;98.50
4635;DHT22;2330;48.158;11.816;2023-02-28T09:28:45;-1.40;98.50
4635;DHT22;2330;48.158;11.816;2023-02-28T09:31:14;-1.80;98.50
4635;DHT22;2330;48.158;11.816;2023-02-28T09:33:42;-1.80;98.50
4635;DHT22;2330;48.158;11.816;2023-02-28T09:36:09;-1.90;98.50
4635;DHT22;2330;48.158;11.816;2023-02-28T09:38:35;-1.60;98.50
4635;DHT22;2330;48.158;11.816;2023-02-28T09:41:09;-1.20;98.50
4635;DHT22;2330;48.158;11.816;2023-02-28T09:43:40;-0.90;98.50
4635;DHT22;2330;48.158;11.816;2023-02-28T09:48:48;-0.90;98.50
4635;DHT22;2330;48.158;11.816;2023-02-28T09:51:37;-1.30;98.50
4635;DHT22;2330;48.158;11.816;2023-02-28T09:54:08;-1.20;98.50
4635;DHT22;2330;48.158;11.816;2023-02-28T09:56:42;-1.30;98.50
4635;DHT22;2330;48.158;11.816;2023-02-28T10:06:59;-0.60;98.50
4635;DHT22;2330;48.158;11.816;2023-02-28T10:09:31;-0.50;98.50
4635;DHT22;2330;48.158;11.816;2023-02-28T10:12:05;-0.50;98.50
4635;DHT22;2330;48.158;11.816;2023-02-28T10:14:34;-0.30;98.50
4635;DHT22;2330;48.158;11.816;2023-02-28T10:17:04;-0.20;98.50
4635;DHT22;2330;48.158;11.816;2023-02-28T10:22:23;-0.10;98.50
4635;DHT22;2330;48.158;11.816;2023-02-28T10:24:54;-0.10;98.50
4635;DHT22;2330;48.158;11.816;2023-02-28T10:27:29;0.10;98.50
4635;DHT22;2330;48.158;11.816;2023-02-28T10:30:00;0.60;98.50
4635;DHT22;2330;48.158;11.816;2023-02-28T10:32:33;0.90;98.50
4635;DHT22;2330;48.158;11.816;2023-02-28T10:35:14;1.10;98.50
4635;DHT22;2330;48.158;11.816;2023-02-28T10:37:43;1.00;98.50
4635;DHT22;2330;48.158;11.816;2023-02-28T10:45:32;1.00;98.50
4635;DHT22;2330;48.158;11.816;2023-02-28T10:48:04;1.30;98.50
4635;DHT22;2330;48.158;11.816;2023-02-28T10:50:39;1.40;98.50
4635;DHT22;2330;48.158;11.816;2023-02-28T10:55:43;1.40;98.50
4635;DHT22;2330;48.158;11.816;2023-02-28T10:58:30;1.30;98.50
4635;DHT22;2330;48.158;11.816;2023-02-28T11:00:58;1.20;98.50
4635;DHT22;2330;48.158;11.816;2023-02-28T11:03:31;1.30;98.50
4635;DHT22;2330;48.158;11.816;2023-02-28T11:05:58;1.20;98.50
4635;DHT22;2330;48.158;11.816;2023-02-28T11:08:30;1.10;98.50
4635;DHT22;2330;48.158;11.816;2023-02-28T11:10:59;1.20;98.50
4635;DHT22;2330;48.158;11.816;2023-02-28T11:13:35;1.50;98.50
4635;DHT22;2330;48.158;11.816;2023-02-28T11:16:06;1.80;98.50
4635;DHT22;2330;48.158;11.816;2023-02-28T11:18:50;2.10;98.50
4635;DHT22;2330;48.158;11.816;2023-02-28T11:21:25;2.40;98.50
4635;DHT22;2330;48.158;11.816;2023-02-28T11:23:59;2.50;98.50
4635;DHT22;2330;48.158;11.816;2023-02-28T11:26:45;2.40;98.50
4635;DHT22;2330;48.158;11.816;2023-02-28T11:29:21;2.60;98.20
4635;DHT22;2330;48.158;11.816;2023-02-28T11:32:25;2.80;98.50
4635;DHT22;2330;48.158;11.816;2023-02-28T11:37:39;3.30;98.00
4635;DHT22;2330;48.158;11.816;2023-02-28T11:40:13;2.20;96.40
4635;DHT22;2330;48.158;11.816;2023-02-28T11:45:50;2.80;97.90
4635;DHT22;2330;48.158;11.816;2023-02-28T11:48:45;2.70;96.20
4635;DHT22;2330;48.158;11.816;2023-02-28T11:51:34;3.00;97.90
4635;DHT22;2330;48.158;11.816;2023-02-28T11:54:11;3.20;96.10
4635;DHT22;2330;48.158;11.816;2023-02-28T11:56:48;3.40;96.70
4635;DHT22;2330;48.158;11.816;2023-02-28T11:59:43;3.70;96.10
4635;DHT22;2330;48.158;11.816;2023-02-28T12:02:23;3.60;94.70
4635;DHT22;2330;48.158;11.816;2023-02-28T12:10:17;3.40;94.20
4635;DHT22;2330;48.158;11.816;2023-02-28T12:26:45;2.80;96.40
4635;DHT22;2330;48.158;11.816;2023-02-28T12:32:05;2.90;97.70
4635;DHT22;2330;48.158;11.816;2023-02-28T12:34:36;3.50;97.30
4635;DHT22;2330;48.158;11.816;2023-02-28T12:37:09;3.20;95.00
4635;DHT22;2330;48.158;11.816;2023-02-28T12:39:48;3.30;96.10
4635;DHT22;2330;48.158;11.816;2023-02-28T12:42:36;3.40;95.50
4635;DHT22;2330;48.158;11.816;2023-02-28T12:45:13;3.20;95.10
4635;DHT22;2330;48.158;11.816;2023-02-28T12:47:44;2.20;95.70
4635;DHT22;2330;48.158;11.816;2023-02-28T12:50:12;2.20;96.90
4635;DHT22;2330;48.158;11.816;2023-02-28T12:55:33;3.20;97.30
4635;DHT22;2330;48.158;11.816;2023-02-28T12:58:30;3.40;96.40
4635;DHT22;2330;48.158;11.816;2023-02-28T13:04:42;4.10;94.90
4635;DHT22;2330;48.158;11.816;2023-02-28T13:09:33;4.00;93.30
4635;DHT22;2330;48.158;11.816;2023-02-28T13:11:59;4.30;93.80
4635;DHT22;2330;48.158;11.816;2023-02-28T13:19:31;5.10;92.80
4635;DHT22;2330;48.158;11.816;2023-02-28T13:21:59;5.30;91.10
4635;DHT22;2330;48.158;11.816;2023-02-28T13:24:45;4.40;90.00
4635;DHT22;2330;48.158;11.816;2023-02-28T13:29:44;5.00;90.60
4635;DHT22;2330;48.158;11.816;2023-02-28T13:35:08;4.90;91.90
4635;DHT22;2330;48.158;11.816;2023-02-28T13:37:42;4.90;91.80
4635;DHT22;2330;48.158;11.816;2023-02-28T13:42:47;4.90;92.30
4635;DHT22;2330;48.158;11.816;2023-02-28T13:45:26;4.90;91.20
4635;DHT22;2330;48.158;11.816;2023-02-28T13:48:00;5.40;90.70
4635;DHT22;2330;48.158;11.816;2023-02-28T13:53:13;4.90;90.20
4635;DHT22;2330;48.158;11.816;2023-02-28T14:06:56;4.00;93.20
4635;DHT22;2330;48.158;11.816;2023-02-28T14:09:28;4.30;92.40
4635;DHT22;2330;48.158;11.816;2023-02-28T14:11:57;4.20;91.50
4635;DHT22;2330;48.158;11.816;2023-02-28T14:17:05;3.90;93.70
4635;DHT22;2330;48.158;11.816;2023-02-28T14:19:34;4.10;93.50
4635;DHT22;2330;48.158;11.816;2023-02-28T14:25:12;4.80;92.40
4635;DHT22;2330;48.158;11.816;2023-02-28T14:27:58;4.90;91.90
4635;DHT22;2330;48.158;11.816;2023-02-28T14:33:59;5.20;90.50
4635;DHT22;2330;48.158;11.816;2023-02-28T14:36:41;5.40;90.30
4635;DHT22;2330;48.158;11.816;2023-02-28T14:39:13;5.40;89.20
4635;DHT22;2330;48.158;11.816;2023-02-28T14:41:42;5.50;90.10
4635;DHT22;2330;48.158;11.816;2023-02-28T14:44:24;5.50;90.10
4635;DHT22;2330;48.158;11.816;2023-02-28T14:47:00;5.40;90.30
4635;DHT22;2330;48.158;11.816;2023-02-28T14:49:44;4.90;90.90
4635;DHT22;2330;48.158;11.816;2023-02-28T14:54:44;4.50;91.90
4635;DHT22;2330;48.158;11.816;2023-02-28T14:57:33;4.50;92.10
4635;DHT22;2330;48.158;11.816;2023-02-28T15:02:38;4.40;92.70
4635;DHT22;2330;48.158;11.816;2023-02-28T15:07:44;4.10;92.60
4635;DHT22;2330;48.158;11.816;2023-02-28T15:10:26;3.80;93.30
4635;DHT22;2330;48.158;11.816;2023-02-28T15:13:06;3.90;94.90
4635;DHT22;2330;48.158;11.816;2023-02-28T15:15:39;3.80;94.40
4635;DHT22;2330;48.158;11.816;2023-02-28T15:21:03;3.80;95.10
4635;DHT22;2330;48.158;11.816;2023-02-28T15:23:34;3.80;94.80
4635;DHT22;2330;48.158;11.816;2023-02-28T15:26:01;3.90;94.70
4635;DHT22;2330;48.158;11.816;2023-02-28T15:28:29;3.50;94.40
4635;DHT22;2330;48.158;11.816;2023-02-28T15:30:59;3.40;94.80
4635;DHT22;2330;48.158;11.816;2023-02-28T15:33:29;3.60;95.70
4635;DHT22;2330;48.158;11.816;2023-02-28T15:36:16;3.70;95.90
4635;DHT22;2330;48.158;11.816;2023-02-28T15:38:51;3.70;96.00
4635;DHT22;2330;48.158;11.816;2023-02-28T15:41:28;3.70;95.70
4635;DHT22;2330;48.158;11.816;2023-02-28T15:44:34;3.70;96.10
4635;DHT22;2330;48.158;11.816;2023-02-28T15:47:04;3.60;96.20
4635;DHT22;2330;48.158;11.816;2023-02-28T15:49:40;3.70;96.60
4635;DHT22;2330;48.158;11.816;2023-02-28T15:52:15;3.60;97.10
4635;DHT22;2330;48.158;11.816;2023-02-28T15:54:44;3.50;97.20
4635;DHT22;2330;48.158;11.816;2023-02-28T15:57:22;3.30;97.00
4635;DHT22;2330;48.158;11.816;2023-02-28T15:59:56;3.20;97.60
4635;DHT22;2330;48.158;11.816;2023-02-28T16:02:33;3.20;98.00
4635;DHT22;2330;48.158;11.816;2023-02-28T16:07:41;2.90;98.50
4635;DHT22;2330;48.158;11.816;2023-02-28T16:10:11;2.80;98.50
4635;DHT22;2330;48.158;11.816;2023-02-28T16:12:39;2.70;98.50
4635;DHT22;2330;48.158;11.816;2023-02-28T16:15:14;2.60;98.50
4635;DHT22;2330;48.158;11.816;2023-02-28T16:17:43;2.50;98.50
4635;DHT22;2330;48.158;11.816;2023-02-28T16:20:18;2.40;98.50
4635;DHT22;2330;48.158;11.816;2023-02-28T16:22:45;2.30;98.50
4635;DHT22;2330;48.158;11.816;2023-02-28T16:25:16;2.30;98.50
4635;DHT22;2330;48.158;11.816;2023-02-28T16:27:46;2.20;98.50
4635;DHT22;2330;48.158;11.816;2023-02-28T16:30:21;2.10;98.50
4635;DHT22;2330;48.158;11.816;2023-02-28T16:32:49;2.00;98.50
4635;DHT22;2330;48.158;11.816;2023-02-28T16:35:19;2.00;98.50
4635;DHT22;2330;48.158;11.816;2023-02-28T16:37:46;1.90;98.50
4635;DHT22;2330;48.158;11.816;2023-02-28T16:40:19;1.80;98.50
4635;DHT22;2330;48.158;11.816;2023-02-28T16:42:49;1.80;98.50
4635;DHT22;2330;48.158;11.816;2023-02-28T16:45:28;1.70;98.50
4635;DHT22;2330;48.158;11.816;2023-02-28T16:47:55;1.60;98.50
4635;DHT22;2330;48.158;11.816;2023-02-28T16:50:25;1.60;98.50
4635;DHT22;2330;48.158;11.816;2023-02-28T16:52:52;1.50;98.50
4635;DHT22;2330;48.158;11.816;2023-02-28T16:55:22;1.40;98.50
4635;DHT22;2330;48.158;11.816;2023-02-28T16:57:52;1.40;98.50
4635;DHT22;2330;48.158;11.816;2023-02-28T17:00:20;1.30;98.50
4635;DHT22;2330;48.158;11.816;2023-02-28T17:02:47;1.30;98.50
4635;DHT22;2330;48.158;11.816;2023-02-28T17:05:14;1.20;98.50
4635;DHT22;2330;48.158;11.816;2023-02-28T17:07:42;1.20;98.50
4635;DHT22;2330;48.158;11.816;2023-02-28T17:10:24;1.10;98.50
4635;DHT22;2330;48.158;11.816;2023-02-28T17:12:51;1.10;98.50
4635;DHT22;2330;48.158;11.816;2023-02-28T17:15:22;1.00;98.50
4635;DHT22;2330;48.158;11.816;2023-02-28T17:17:49;0.90;98.50
4635;DHT22;2330;48.158;11.816;2023-02-28T17:20:21;0.90;98.50
4635;DHT22;2330;48.158;11.816;2023-02-28T17:22:53;0.80;98.50
4635;DHT22;2330;48.158;11.816;2023-02-28T17:25:21;0.80;98.50
4635;DHT22;2330;48.158;11.816;2023-02-28T17:27:48;0.80;98.50
4635;DHT22;2330;48.158;11.816;2023-02-28T17:30:20;0.80;98.50
4635;DHT22;2330;48.158;11.816;2023-02-28T17:32:47;0.80;98.50
4635;DHT22;2330;48.158;11.816;2023-02-28T17:35:15;0.80;98.50
4635;DHT22;2330;48.158;11.816;2023-02-28T17:37:43;0.80;98.50
4635;DHT22;2330;48.158;11.816;2023-02-28T17:40:17;0.90;98.50
4635;DHT22;2330;48.158;11.816;2023-02-28T17:42:44;0.90;98.50
4635;DHT22;2330;48.158;11.816;2023-02-28T17:45:13;0.90;98.50
4635;DHT22;2330;48.158;11.816;2023-02-28T17:47:41;0.90;98.50
4635;DHT22;2330;48.158;11.816;2023-02-28T17:50:15;1.00;98.50
4635;DHT22;2330;48.158;11.816;2023-02-28T17:52:42;1.10;98.50
4635;DHT22;2330;48.158;11.816;2023-02-28T17:55:10;1.10;98.50
4635;DHT22;2330;48.158;11.816;2023-02-28T17:57:37;1.10;98.50
4635;DHT22;2330;48.158;11.816;2023-02-28T18:00:05;1.10;98.50
4635;DHT22;2330;48.158;11.816;2023-02-28T18:02:36;1.10;98.50
4635;DHT22;2330;48.158;11.816;2023-02-28T18:05:02;1.20;98.50
4635;DHT22;2330;48.158;11.816;2023-02-28T18:07:31;1.20;98.50
4635;DHT22;2330;48.158;11.816;2023-02-28T18:09:57;1.20;98.50
4635;DHT22;2330;48.158;11.816;2023-02-28T18:12:24;1.20;98.50
4635;DHT22;2330;48.158;11.816;2023-02-28T18:14:51;1.20;98.50
4635;DHT22;2330;48.158;11.816;2023-02-28T18:17:18;1.20;98.50
4635;DHT22;2330;48.158;11.816;2023-02-28T18:19:45;1.20;98.50
4635;DHT22;2330;48.158;11.816;2023-02-28T18:22:12;1.30;98.50
4635;DHT22;2330;48.158;11.816;2023-02-28T18:24:38;1.20;98.50
4635;DHT22;2330;48.158;11.816;2023-02-28T18:27:07;1.30;98.50
4635;DHT22;2330;48.158;11.816;2023-02-28T18:29:33;1.30;98.50